Sir Henry — DYIL — position and weather

sailwx.info

Track history (hours):
 
Tides and Currents Weather Stations Pressure Air Temp Water Temp Dewpoint Dewpoint Depression Visibility Wind Speed Wind Dir Waves Ship Positions

Sir Henry

Last reported at 2015-May-06 12:32 UTC. Time now 2015-May-06 13:31 UTC.
Position N 41°19' E 002°11'.

Length 148 m; draft 9.2 m.

Type: Cargo ship. MMSI: 548718000.

Date/timePositionNaut miles runAvg speedWind from/ knotsBaromVisibWave heightAir tempDewpointWater temp
2015-May-06 12:32N 41°19' E 002°11'0 0.0
2015-May-06 10:20N 41°19' E 002°11'10 3.2
2015-May-06 07:05N 41°09' E 002°07'610.8
2015-May-06 06:30N 41°03' E 002°03'1112.0
2015-May-06 05:33N 40°53' E 001°56'1212.3
2015-May-06 04:33N 40°42' E 001°49'1312.7
2015-May-06 03:33N 40°31' E 001°41'1312.5
2015-May-06 02:33N 40°20' E 001°33'1212.3
2015-May-06 01:34N 40°09' E 001°26'1212.2
2015-May-06 00:33N 39°58' E 001°18'1212.0
2015-May-05 23:33N 39°47' E 001°12'1712.9
2015-May-05 22:12N 39°32' E 001°01'2513.0
2015-May-05 20:16N 39°09' E 000°47'912.5
2015-May-05 19:33N 39°02' E 000°41'1212.4
2015-May-05 18:33N 38°51' E 000°34'1312.6
2015-May-05 17:31N 38°39' E 000°26'1212.5
2015-May-05 16:33N 38°30' E 000°17'1312.6
2015-May-05 15:33N 38°18' E 000°09'1212.3
2015-May-05 14:33N 38°08' E 000°00'1211.9
2015-May-05 13:34N 37°59' W 000°09'1312.6
2015-May-05 12:33N 37°48' W 000°18'1312.5
2015-May-05 11:33N 37°38' W 000°27'1212.2
2015-May-05 10:33N 37°29' W 000°37'1212.2
2015-May-05 09:33N 37°21' W 000°48'1212.2
2015-May-05 08:33N 37°12' W 000°60'1212.1
2015-May-05 07:32N 37°04' W 001°11'6411.8
2015-May-05 02:07N 36°21' W 002°11'711.8
2015-May-05 01:32N 36°20' W 002°19'1212.5
2015-May-05 00:33N 36°18' W 002°34'13313.3
2015-May-04 14:34N 35°59' W 005°18'7512.5
2015-May-04 08:33N 36°02' W 006°51'3812.6
2015-May-04 05:33N 36°12' W 007°36'3112.5
2015-May-04 03:07N 36°21' W 008°12'812.5
2015-May-04 02:31N 36°22' W 008°21'1312.5
2015-May-04 01:30N 36°26' W 008°36'1212.6
2015-May-04 00:33N 36°29' W 008°51'1612.4
2015-May-03 23:17N 36°32' W 009°10'2111.9
2015-May-03 21:30N 36°46' W 009°30'1111.5
2015-May-03 20:32N 36°56' W 009°35'1312.2
2015-May-03 19:28N 37°09' W 009°39'1212.4
2015-May-03 18:32N 37°20' W 009°42'1212.5
2015-May-03 17:33N 37°32' W 009°46'1212.4
2015-May-03 16:33N 37°44' W 009°49'1312.5
2015-May-03 15:33N 37°56' W 009°53'1212.1
2015-May-03 14:34N 38°08' W 009°56'1312.1
2015-May-03 13:27N 38°21' W 009°60'1112.2
2015-May-03 12:33N 38°32' W 010°03'1212.1
2015-May-03 11:33N 38°44' W 010°06'1211.7
2015-May-03 10:33N 38°56' W 010°06'1211.7
2015-May-03 09:34N 39°07' W 010°06'1211.7
2015-May-03 08:34N 39°19' W 010°06'  
2015-Apr-30 14:17N 50°37' W 005°31'811.1
2015-Apr-30 13:33N 50°42' W 005°21'10411.6
2015-Apr-30 04:33N 51°28' W 002°53'7 6.5
2015-Apr-30 03:34N 51°30' W 002°43'0 0.3
2015-Apr-30 02:31N 51°30' W 002°42'0 0.0
2015-Apr-30 01:31N 51°30' W 002°42'0 0.0
2015-Apr-30 00:31N 51°30' W 002°42'0 0.0
2015-Apr-29 23:31N 51°30' W 002°42'0 0.0
2015-Apr-29 22:33N 51°30' W 002°42'0 0.0
2015-Apr-29 21:30N 51°30' W 002°42'0 0.0
2015-Apr-29 20:33N 51°30' W 002°42'0 0.0
2015-Apr-29 19:33N 51°30' W 002°42'0 0.0
2015-Apr-29 18:30N 51°30' W 002°42'0 0.0
2015-Apr-29 17:30N 51°30' W 002°42'0 0.0
2015-Apr-29 16:33N 51°30' W 002°42'0 0.0
2015-Apr-29 15:33N 51°30' W 002°42'0 0.0
2015-Apr-29 14:33N 51°30' W 002°42'0 0.0
2015-Apr-29 13:33N 51°30' W 002°42'0 0.0
2015-Apr-29 12:30N 51°30' W 002°42'0 0.0
2015-Apr-29 11:33N 51°30' W 002°42'0 0.0
2015-Apr-29 10:33N 51°30' W 002°42'0 0.0
2015-Apr-29 09:30N 51°30' W 002°42'0 0.0
2015-Apr-29 08:33N 51°30' W 002°42'0 0.0
2015-Apr-29 07:30N 51°30' W 002°42'0 0.0
2015-Apr-29 06:24N 51°30' W 002°42'0 0.0
2015-Apr-29 05:33N 51°30' W 002°42'0 0.0
2015-Apr-29 04:33N 51°30' W 002°42'0 0.0
2015-Apr-29 03:33N 51°30' W 002°42'0 0.0
2015-Apr-29 02:33N 51°30' W 002°42'0 0.0
2015-Apr-29 01:33N 51°30' W 002°42'0 0.0
2015-Apr-29 00:33N 51°30' W 002°42'0 0.0
2015-Apr-28 23:24N 51°30' W 002°42'0 0.0
2015-Apr-28 22:33N 51°30' W 002°42'0 0.0
2015-Apr-28 21:33N 51°30' W 002°42'0 0.0
2015-Apr-28 20:33N 51°30' W 002°42'0 0.0
2015-Apr-28 19:33N 51°30' W 002°42'0 0.0
2015-Apr-28 18:33N 51°30' W 002°42'0 0.0
2015-Apr-28 17:24N 51°30' W 002°42'0 0.0
2015-Apr-28 16:33N 51°30' W 002°42'0 0.0
2015-Apr-28 15:32N 51°30' W 002°42'0 0.0
2015-Apr-28 14:32N 51°30' W 002°42'0 0.0
2015-Apr-28 13:29N 51°30' W 002°42'0 0.0
2015-Apr-28 12:32N 51°30' W 002°42'0 0.0
2015-Apr-28 11:26N 51°30' W 002°42'0 0.0
2015-Apr-28 10:32N 51°30' W 002°42'0 0.0
2015-Apr-28 09:32N 51°30' W 002°42'0 0.0
2015-Apr-28 08:29N 51°30' W 002°42'0 0.0
2015-Apr-28 07:32N 51°30' W 002°42'0 0.0
2015-Apr-28 06:32N 51°30' W 002°42'0 0.0
2015-Apr-28 05:26N 51°30' W 002°42'0 0.0
2015-Apr-28 04:32N 51°30' W 002°42'0 0.0
2015-Apr-28 03:32N 51°30' W 002°42'0 0.0
2015-Apr-28 02:29N 51°30' W 002°42'0 0.0
2015-Apr-28 01:32N 51°30' W 002°42'0 0.0
2015-Apr-28 00:32N 51°30' W 002°42'0 0.0
2015-Apr-27 23:29N 51°30' W 002°42'0 0.0
2015-Apr-27 22:32N 51°30' W 002°42'0 0.0
2015-Apr-27 21:32N 51°30' W 002°42'0 0.0
2015-Apr-27 20:32N 51°30' W 002°42'0 0.0
2015-Apr-27 19:29N 51°30' W 002°42'0 0.0
2015-Apr-27 18:29N 51°30' W 002°42'0 0.0
2015-Apr-27 17:32N 51°30' W 002°42'0 0.0
2015-Apr-27 16:32N 51°30' W 002°42'0 0.0
2015-Apr-27 15:32N 51°30' W 002°42'0 0.0
2015-Apr-27 14:32N 51°30' W 002°42'0 0.0
2015-Apr-27 13:32N 51°30' W 002°42'0 0.0
2015-Apr-27 12:32N 51°30' W 002°42'0 0.0
2015-Apr-27 11:32N 51°30' W 002°42'0 0.0
2015-Apr-27 10:32N 51°30' W 002°42'0 0.0
2015-Apr-27 09:32N 51°30' W 002°42'0 0.0
2015-Apr-27 08:31N 51°30' W 002°42'0 0.0
2015-Apr-27 07:31N 51°30' W 002°42'0 0.0
2015-Apr-27 06:31N 51°30' W 002°42'0 0.0
2015-Apr-27 05:31N 51°30' W 002°42'0 0.0
2015-Apr-27 04:28N 51°30' W 002°42'0 0.0
2015-Apr-27 03:31N 51°30' W 002°42'0 0.0
2015-Apr-27 02:31N 51°30' W 002°42'0 0.0
2015-Apr-27 01:28N 51°30' W 002°42'0 0.0
2015-Apr-27 00:28N 51°30' W 002°42'0 0.0
2015-Apr-26 23:31N 51°30' W 002°42'0 0.0
2015-Apr-26 22:31N 51°30' W 002°42'0 0.0
2015-Apr-26 21:28N 51°30' W 002°42'0 0.0
2015-Apr-26 20:28N 51°30' W 002°42'0 0.0
2015-Apr-26 19:31N 51°30' W 002°42'0 0.0
2015-Apr-26 18:28N 51°30' W 002°42'0 0.0
2015-Apr-26 17:31N 51°30' W 002°42'0 0.0
2015-Apr-26 16:28N 51°30' W 002°42'0 0.0
2015-Apr-26 15:31N 51°30' W 002°42'0 0.0
2015-Apr-26 14:31N 51°30' W 002°42'0 0.0
2015-Apr-26 13:31N 51°30' W 002°42'0 0.2
2015-Apr-26 12:33N 51°30' W 002°42'  
Track history (hours):
 
Tides and Currents Weather Stations Pressure Air Temp Water Temp Dewpoint Dewpoint Depression Visibility Wind Speed Wind Dir Waves Ship Positions

Sir Henry

Last reported at 2015-May-06 12:32 UTC. Time now 2015-May-06 13:31 UTC.
Position N 41°19' E 002°11'.

Length 148 m; draft 9.2 m.

Type: Cargo ship. MMSI: 548718000.

Date/timePositionNaut miles runAvg speedWind from/ knotsBaromVisibWave heightAir tempDewpointWater temp
2015-May-06 12:32N 41°19' E 002°11'0 0.0
2015-May-06 10:20N 41°19' E 002°11'10 3.2
2015-May-06 07:05N 41°09' E 002°07'610.8
2015-May-06 06:30N 41°03' E 002°03'1112.0
2015-May-06 05:33N 40°53' E 001°56'1212.3
2015-May-06 04:33N 40°42' E 001°49'1312.7
2015-May-06 03:33N 40°31' E 001°41'1312.5
2015-May-06 02:33N 40°20' E 001°33'1212.3
2015-May-06 01:34N 40°09' E 001°26'1212.2
2015-May-06 00:33N 39°58' E 001°18'1212.0
2015-May-05 23:33N 39°47' E 001°12'1712.9
2015-May-05 22:12N 39°32' E 001°01'2513.0
2015-May-05 20:16N 39°09' E 000°47'912.5
2015-May-05 19:33N 39°02' E 000°41'1212.4
2015-May-05 18:33N 38°51' E 000°34'1312.6
2015-May-05 17:31N 38°39' E 000°26'1212.5
2015-May-05 16:33N 38°30' E 000°17'1312.6
2015-May-05 15:33N 38°18' E 000°09'1212.3
2015-May-05 14:33N 38°08' E 000°00'1211.9
2015-May-05 13:34N 37°59' W 000°09'1312.6
2015-May-05 12:33N 37°48' W 000°18'1312.5
2015-May-05 11:33N 37°38' W 000°27'1212.2
2015-May-05 10:33N 37°29' W 000°37'1212.2
2015-May-05 09:33N 37°21' W 000°48'1212.2
2015-May-05 08:33N 37°12' W 000°60'1212.1
2015-May-05 07:32N 37°04' W 001°11'6411.8
2015-May-05 02:07N 36°21' W 002°11'711.8
2015-May-05 01:32N 36°20' W 002°19'1212.5
2015-May-05 00:33N 36°18' W 002°34'13313.3
2015-May-04 14:34N 35°59' W 005°18'7512.5
2015-May-04 08:33N 36°02' W 006°51'3812.6
2015-May-04 05:33N 36°12' W 007°36'3112.5
2015-May-04 03:07N 36°21' W 008°12'812.5
2015-May-04 02:31N 36°22' W 008°21'1312.5
2015-May-04 01:30N 36°26' W 008°36'1212.6
2015-May-04 00:33N 36°29' W 008°51'1612.4
2015-May-03 23:17N 36°32' W 009°10'2111.9
2015-May-03 21:30N 36°46' W 009°30'1111.5
2015-May-03 20:32N 36°56' W 009°35'1312.2
2015-May-03 19:28N 37°09' W 009°39'1212.4
2015-May-03 18:32N 37°20' W 009°42'1212.5
2015-May-03 17:33N 37°32' W 009°46'1212.4
2015-May-03 16:33N 37°44' W 009°49'1312.5
2015-May-03 15:33N 37°56' W 009°53'1212.1
2015-May-03 14:34N 38°08' W 009°56'1312.1
2015-May-03 13:27N 38°21' W 009°60'1112.2
2015-May-03 12:33N 38°32' W 010°03'1212.1
2015-May-03 11:33N 38°44' W 010°06'1211.7
2015-May-03 10:33N 38°56' W 010°06'1211.7
2015-May-03 09:34N 39°07' W 010°06'1211.7
2015-May-03 08:34N 39°19' W 010°06'  
2015-Apr-30 14:17N 50°37' W 005°31'811.1
2015-Apr-30 13:33N 50°42' W 005°21'10411.6
2015-Apr-30 04:33N 51°28' W 002°53'7 6.5
2015-Apr-30 03:34N 51°30' W 002°43'0 0.3
2015-Apr-30 02:31N 51°30' W 002°42'0 0.0
2015-Apr-30 01:31N 51°30' W 002°42'0 0.0
2015-Apr-30 00:31N 51°30' W 002°42'0 0.0
2015-Apr-29 23:31N 51°30' W 002°42'0 0.0
2015-Apr-29 22:33N 51°30' W 002°42'0 0.0
2015-Apr-29 21:30N 51°30' W 002°42'0 0.0
2015-Apr-29 20:33N 51°30' W 002°42'0 0.0
2015-Apr-29 19:33N 51°30' W 002°42'0 0.0
2015-Apr-29 18:30N 51°30' W 002°42'0 0.0
2015-Apr-29 17:30N 51°30' W 002°42'0 0.0
2015-Apr-29 16:33N 51°30' W 002°42'0 0.0
2015-Apr-29 15:33N 51°30' W 002°42'0 0.0
2015-Apr-29 14:33N 51°30' W 002°42'0 0.0
2015-Apr-29 13:33N 51°30' W 002°42'0 0.0
2015-Apr-29 12:30N 51°30' W 002°42'0 0.0
2015-Apr-29 11:33N 51°30' W 002°42'0 0.0
2015-Apr-29 10:33N 51°30' W 002°42'0 0.0
2015-Apr-29 09:30N 51°30' W 002°42'0 0.0
2015-Apr-29 08:33N 51°30' W 002°42'0 0.0
2015-Apr-29 07:30N 51°30' W 002°42'0 0.0
2015-Apr-29 06:24N 51°30' W 002°42'0 0.0
2015-Apr-29 05:33N 51°30' W 002°42'0 0.0
2015-Apr-29 04:33N 51°30' W 002°42'0 0.0
2015-Apr-29 03:33N 51°30' W 002°42'0 0.0
2015-Apr-29 02:33N 51°30' W 002°42'0 0.0
2015-Apr-29 01:33N 51°30' W 002°42'0 0.0
2015-Apr-29 00:33N 51°30' W 002°42'0 0.0
2015-Apr-28 23:24N 51°30' W 002°42'0 0.0
2015-Apr-28 22:33N 51°30' W 002°42'0 0.0
2015-Apr-28 21:33N 51°30' W 002°42'0 0.0
2015-Apr-28 20:33N 51°30' W 002°42'0 0.0
2015-Apr-28 19:33N 51°30' W 002°42'0 0.0
2015-Apr-28 18:33N 51°30' W 002°42'0 0.0
2015-Apr-28 17:24N 51°30' W 002°42'0 0.0
2015-Apr-28 16:33N 51°30' W 002°42'0 0.0
2015-Apr-28 15:32N 51°30' W 002°42'0 0.0
2015-Apr-28 14:32N 51°30' W 002°42'0 0.0
2015-Apr-28 13:29N 51°30' W 002°42'0 0.0
2015-Apr-28 12:32N 51°30' W 002°42'0 0.0
2015-Apr-28 11:26N 51°30' W 002°42'0 0.0
2015-Apr-28 10:32N 51°30' W 002°42'0 0.0
2015-Apr-28 09:32N 51°30' W 002°42'0 0.0
2015-Apr-28 08:29N 51°30' W 002°42'0 0.0
2015-Apr-28 07:32N 51°30' W 002°42'0 0.0
2015-Apr-28 06:32N 51°30' W 002°42'0 0.0
2015-Apr-28 05:26N 51°30' W 002°42'0 0.0
2015-Apr-28 04:32N 51°30' W 002°42'0 0.0
2015-Apr-28 03:32N 51°30' W 002°42'0 0.0
2015-Apr-28 02:29N 51°30' W 002°42'0 0.0
2015-Apr-28 01:32N 51°30' W 002°42'0 0.0
2015-Apr-28 00:32N 51°30' W 002°42'0 0.0
2015-Apr-27 23:29N 51°30' W 002°42'0 0.0
2015-Apr-27 22:32N 51°30' W 002°42'0 0.0
2015-Apr-27 21:32N 51°30' W 002°42'0 0.0
2015-Apr-27 20:32N 51°30' W 002°42'0 0.0
2015-Apr-27 19:29N 51°30' W 002°42'0 0.0
2015-Apr-27 18:29N 51°30' W 002°42'0 0.0
2015-Apr-27 17:32N 51°30' W 002°42'0 0.0
2015-Apr-27 16:32N 51°30' W 002°42'0 0.0
2015-Apr-27 15:32N 51°30' W 002°42'0 0.0
2015-Apr-27 14:32N 51°30' W 002°42'0 0.0
2015-Apr-27 13:32N 51°30' W 002°42'0 0.0
2015-Apr-27 12:32N 51°30' W 002°42'0 0.0
2015-Apr-27 11:32N 51°30' W 002°42'0 0.0
2015-Apr-27 10:32N 51°30' W 002°42'0 0.0
2015-Apr-27 09:32N 51°30' W 002°42'0 0.0
2015-Apr-27 08:31N 51°30' W 002°42'0 0.0
2015-Apr-27 07:31N 51°30' W 002°42'0 0.0
2015-Apr-27 06:31N 51°30' W 002°42'0 0.0
2015-Apr-27 05:31N 51°30' W 002°42'0 0.0
2015-Apr-27 04:28N 51°30' W 002°42'0 0.0
2015-Apr-27 03:31N 51°30' W 002°42'0 0.0
2015-Apr-27 02:31N 51°30' W 002°42'0 0.0
2015-Apr-27 01:28N 51°30' W 002°42'0 0.0
2015-Apr-27 00:28N 51°30' W 002°42'0 0.0
2015-Apr-26 23:31N 51°30' W 002°42'0 0.0
2015-Apr-26 22:31N 51°30' W 002°42'0 0.0
2015-Apr-26 21:28N 51°30' W 002°42'0 0.0
2015-Apr-26 20:28N 51°30' W 002°42'0 0.0
2015-Apr-26 19:31N 51°30' W 002°42'0 0.0
2015-Apr-26 18:28N 51°30' W 002°42'0 0.0
2015-Apr-26 17:31N 51°30' W 002°42'0 0.0
2015-Apr-26 16:28N 51°30' W 002°42'0 0.0
2015-Apr-26 15:31N 51°30' W 002°42'0 0.0
2015-Apr-26 14:31N 51°30' W 002°42'0 0.0
2015-Apr-26 13:31N 51°30' W 002°42'0 0.2
2015-Apr-26 12:33N 51°30' W 002°42'  

Dump ship's entire track history